createdAt,value
2023-01-09T00:12:25.871Z,1000.02
2023-01-09T00:41:03.155Z,999.56
2023-01-09T01:09:47.394Z,999.91
2023-01-09T01:38:31.617Z,999.85
2023-01-09T02:07:10.200Z,1000.19
2023-01-09T02:35:53.897Z,1000.88
2023-01-09T03:04:36.999Z,1001.51
2023-01-09T03:33:31.310Z,1002.93
2023-01-09T04:02:27.334Z,1003.43
2023-01-09T04:31:16.248Z,1003.91
2023-01-09T05:00:00.396Z,1004.35
2023-01-09T05:28:55.265Z,1004.68
2023-01-09T05:57:43.451Z,1004.69
2023-01-09T06:26:14.627Z,1004.81
2023-01-09T06:54:51.164Z,1004.74
2023-01-09T07:23:11.094Z,1004.76
2023-01-09T07:51:45.182Z,1004.88
2023-01-09T08:20:21.552Z,1004.92
2023-01-09T08:48:58.422Z,1004.86
2023-01-09T09:17:40.985Z,1004.99
2023-01-09T09:46:21.572Z,1005.12
2023-01-09T10:15:03.103Z,1004.96
2023-01-09T10:44:03.891Z,1005.04
2023-01-09T11:12:44.761Z,1004.84
2023-01-09T11:41:27.265Z,1005.24
2023-01-09T12:10:23.325Z,1005.41
2023-01-09T12:38:43.236Z,1005.73
2023-01-09T13:07:27.277Z,1005.74
2023-01-09T13:36:15.350Z,1006.05
2023-01-09T14:04:52.559Z,1006.17
2023-01-09T14:33:35.876Z,1006.59
2023-01-09T15:02:05.495Z,1007.56
2023-01-09T15:30:46.781Z,1007.9
2023-01-09T15:59:26.064Z,1008.25
2023-01-09T16:27:51.824Z,1008.64
2023-01-09T16:56:22.129Z,1009.01
2023-01-09T17:24:42.512Z,1009.66
2023-01-09T17:53:19.710Z,1009.98
2023-01-09T18:22:11.845Z,1010.46
2023-01-09T18:50:56.673Z,1010.9
2023-01-09T19:19:50.609Z,1011.22
2023-01-09T19:48:32.310Z,1011.5
2023-01-09T20:17:16.207Z,1011.48
2023-01-09T20:45:59.942Z,1011.84
2023-01-09T21:14:48.112Z,1012.26
2023-01-09T21:43:30.715Z,1012.77
2023-01-09T22:12:27.937Z,1013.45
2023-01-09T22:41:29.702Z,1014.09
2023-01-09T23:10:19.959Z,1014.45
2023-01-09T23:39:16.455Z,1015.12
